Time;durP1;ratioP1;P1;durP2;ratioP2;P2;SDS_P1;SDS_P2;PMS_P1;PMS_P2;Temp;Humidity;BMP_temperature;BMP_pressure;BME280_temperature;BME280_humidity;BME280_pressure;Samples;Min_cycle;Max_cycle;Signal;HPM_P1;HPM_P2
2022/08/14 00:00:23;;;;;;;2.58;2.15;;;;;;;;;;4997433;28;20491;-84
2022/08/14 00:02:49;;;;;;;4.38;2.25;;;;;;;;;;4998714;28;20027;-84
2022/08/14 00:05:18;;;;;;;2.58;2.30;;;;;;;;;;4997495;28;20073;-84
2022/08/14 00:07:43;;;;;;;2.75;2.30;;;;;;;;;;4997912;28;20038;-84
2022/08/14 00:10:13;;;;;;;2.80;2.30;;;;;;;;;;4996376;28;20411;-84
2022/08/14 00:12:43;;;;;;;3.53;2.30;;;;;;;;;;4997367;28;20034;-84
2022/08/14 00:15:17;;;;;;;3.72;2.30;;;;;;;;;;4996345;28;20092;-84
2022/08/14 00:17:44;;;;;;;6.93;2.25;;;;;;;;;;4979481;28;20041;-84
2022/08/14 00:20:11;;;;;;;4.05;2.25;;;;;;;;;;4996793;28;20107;-84
2022/08/14 00:22:37;;;;;;;2.67;2.38;;;;;;;;;;4979711;28;20031;-84
2022/08/14 00:25:04;;;;;;;3.30;2.25;;;;;;;;;;4996401;28;20460;-84
2022/08/14 00:27:30;;;;;;;2.50;2.20;;;;;;;;;;4997207;28;20081;-85
2022/08/14 00:29:55;;;;;;;4.13;2.45;;;;;;;;;;4979423;28;20054;-86
2022/08/14 00:32:21;;;;;;;5.82;2.30;;;;;;;;;;4979706;28;20046;-84
2022/08/14 00:34:46;;;;;;;4.38;2.45;;;;;;;;;;4995908;28;20034;-84
2022/08/14 00:37:12;;;;;;;4.20;2.20;;;;;;;;;;4995549;28;20479;-84
2022/08/14 00:39:38;;;;;;;3.42;2.25;;;;;;;;;;4996566;28;20044;-84
2022/08/14 00:42:04;;;;;;;2.58;2.38;;;;;;;;;;4996704;28;20514;-86
2022/08/14 00:44:29;;;;;;;3.78;2.25;;;;;;;;;;4978625;28;20514;-85
2022/08/14 00:46:55;;;;;;;4.05;2.40;;;;;;;;;;4996672;28;20042;-85
2022/08/14 00:49:21;;;;;;;2.95;2.33;;;;;;;;;;4996623;28;20034;-85
2022/08/14 00:51:47;;;;;;;2.92;2.38;;;;;;;;;;4979135;28;20411;-85
2022/08/14 00:54:13;;;;;;;2.83;2.03;;;;;;;;;;4995403;28;20043;-86
2022/08/14 00:56:39;;;;;;;5.45;2.35;;;;;;;;;;4996382;28;20026;-85
2022/08/14 00:59:04;;;;;;;4.15;2.60;;;;;;;;;;4996361;28;20042;-84
2022/08/14 01:01:32;;;;;;;3.42;2.22;;;;;;;;;;4996711;28;20042;-85
2022/08/14 01:04:00;;;;;;;4.32;2.20;;;;;;;;;;4995829;28;20040;-83
2022/08/14 01:06:27;;;;;;;4.22;2.30;;;;;;;;;;4978772;28;20042;-85
2022/08/14 01:08:54;;;;;;;3.97;2.30;;;;;;;;;;4995953;28;20041;-85
2022/08/14 01:11:21;;;;;;;4.65;2.33;;;;;;;;;;4995399;28;20042;-85
2022/08/14 01:13:49;;;;;;;2.58;2.30;;;;;;;;;;4995798;28;20045;-85
2022/08/14 01:16:16;;;;;;;3.60;2.40;;;;;;;;;;4978407;28;20140;-85
2022/08/14 01:21:41;;;;;;;2.75;2.38;;;;;;;;;;4995836;28;20038;-85
2022/08/14 01:24:07;;;;;;;2.63;2.30;;;;;;;;;;4996002;28;20038;-84
2022/08/14 01:26:34;;;;;;;2.83;2.30;;;;;;;;;;4996509;28;20029;-84
2022/08/14 01:29:00;;;;;;;3.03;2.50;;;;;;;;;;4978698;28;20038;-85
2022/08/14 01:31:31;;;;;;;3.90;2.33;;;;;;;;;;4995916;28;20038;-84
2022/08/14 01:33:59;;;;;;;6.35;2.53;;;;;;;;;;4995123;28;20030;-81
2022/08/14 01:36:27;;;;;;;2.70;2.40;;;;;;;;;;4978066;28;20038;-84
2022/08/14 01:38:57;;;;;;;3.30;2.50;;;;;;;;;;4978450;28;20124;-85
2022/08/14 01:41:26;;;;;;;2.50;2.28;;;;;;;;;;4979924;28;20495;-83
2022/08/14 01:44:00;;;;;;;3.10;2.40;;;;;;;;;;4979375;28;20553;-84
2022/08/14 01:46:27;;;;;;;2.58;2.20;;;;;;;;;;4979348;28;20419;-84
2022/08/14 01:48:56;;;;;;;2.80;2.20;;;;;;;;;;4996356;28;20396;-84
2022/08/14 01:51:23;;;;;;;2.53;2.30;;;;;;;;;;4978912;28;20050;-84
2022/08/14 01:53:53;;;;;;;3.85;2.50;;;;;;;;;;4995314;28;20041;-84
2022/08/14 01:56:20;;;;;;;3.67;2.40;;;;;;;;;;4995063;28;20045;-84
2022/08/14 01:58:48;;;;;;;5.07;2.45;;;;;;;;;;4977999;28;20038;-84
2022/08/14 02:01:20;;;;;;;2.85;2.40;;;;;;;;;;4995468;28;20033;-84
2022/08/14 02:03:46;;;;;;;3.03;2.40;;;;;;;;;;4995425;28;20069;-84
2022/08/14 02:06:12;;;;;;;3.47;2.70;;;;;;;;;;4977207;28;20118;-85
2022/08/14 02:08:39;;;;;;;6.78;2.50;;;;;;;;;;4995101;28;20319;-84
2022/08/14 02:11:23;;;;;;;2.78;2.40;;;;;;;;;;4994187;28;20042;-84
2022/08/14 02:13:51;;;;;;;;;;;;;;;;;;4978493;28;20552;-83
2022/08/14 02:16:20;;;;;;;3.50;2.40;;;;;;;;;;4977486;28;19921;-84
2022/08/14 02:18:45;;;;;;;4.63;2.63;;;;;;;;;;4977838;28;20522;-84
2022/08/14 02:21:17;;;;;;;3.13;2.40;;;;;;;;;;4995263;28;20042;-84
2022/08/14 02:23:47;;;;;;;4.10;2.55;;;;;;;;;;4995228;28;20046;-84
2022/08/14 02:26:16;;;;;;;3.38;2.50;;;;;;;;;;4977425;28;20030;-84
2022/08/14 02:28:42;;;;;;;3.85;2.47;;;;;;;;;;4995175;28;20038;-84
2022/08/14 02:31:08;;;;;;;3.92;2.55;;;;;;;;;;4977667;28;20093;-83
2022/08/14 02:33:34;;;;;;;3.78;2.55;;;;;;;;;;4994464;28;20039;-84
2022/08/14 02:36:02;;;;;;;4.57;2.40;;;;;;;;;;4995647;28;20049;-84
2022/08/14 02:38:28;;;;;;;4.80;2.67;;;;;;;;;;4995024;28;20438;-84
2022/08/14 02:40:54;;;;;;;5.05;2.50;;;;;;;;;;4994592;28;20042;-84
2022/08/14 02:43:20;;;;;;;3.75;2.50;;;;;;;;;;4977787;28;20037;-85
2022/08/14 02:45:46;;;;;;;2.92;2.63;;;;;;;;;;4977170;28;20037;-84
2022/08/14 02:48:13;;;;;;;4.57;2.67;;;;;;;;;;4995420;28;20497;-84
2022/08/14 02:50:40;;;;;;;2.85;2.30;;;;;;;;;;4994330;28;20105;-84
2022/08/14 02:53:07;;;;;;;5.00;2.53;;;;;;;;;;4977133;28;20046;-86
2022/08/14 02:55:32;;;;;;;4.65;2.40;;;;;;;;;;4976993;28;20141;-85
2022/08/14 02:57:58;;;;;;;3.20;2.60;;;;;;;;;;4994769;28;20078;-85
2022/08/14 03:00:25;;;;;;;3.08;2.42;;;;;;;;;;4997364;28;20038;-85
2022/08/14 03:02:50;;;;;;;3.65;2.53;;;;;;;;;;4998641;28;20034;-85
2022/08/14 03:05:16;;;;;;;3.33;2.60;;;;;;;;;;4998039;28;20034;-84
2022/08/14 03:07:44;;;;;;;3.30;2.45;;;;;;;;;;4981228;28;20038;-85
2022/08/14 03:10:10;;;;;;;3.00;2.70;;;;;;;;;;4996653;28;20038;-85
2022/08/14 03:12:36;;;;;;;2.97;2.40;;;;;;;;;;4998178;28;20076;-85
2022/08/14 03:15:08;;;;;;;5.22;2.50;;;;;;;;;;4980355;28;20395;-85
2022/08/14 03:17:34;;;;;;;4.32;2.65;;;;;;;;;;4997777;28;20041;-85
2022/08/14 03:19:59;;;;;;;5.82;2.50;;;;;;;;;;4998220;28;20398;-85
2022/08/14 03:22:26;;;;;;;3.85;2.90;;;;;;;;;;4998209;28;20034;-85
2022/08/14 03:24:52;;;;;;;7.22;2.55;;;;;;;;;;4997422;28;20049;-85
2022/08/14 03:27:17;;;;;;;3.00;2.40;;;;;;;;;;4996689;28;20034;-84
2022/08/14 03:29:44;;;;;;;3.42;2.47;;;;;;;;;;4998503;28;20053;-85
2022/08/14 03:32:09;;;;;;;3.08;2.30;;;;;;;;;;4981615;28;20037;-85
2022/08/14 03:34:36;;;;;;;2.80;2.40;;;;;;;;;;4997964;28;20030;-84
2022/08/14 03:37:02;;;;;;;2.97;2.35;;;;;;;;;;4965834;28;20034;-85
2022/08/14 03:39:27;;;;;;;4.18;2.30;;;;;;;;;;4980772;28;20078;-85
2022/08/14 03:41:55;;;;;;;2.70;2.35;;;;;;;;;;4997999;28;20061;-84
2022/08/14 03:44:22;;;;;;;2.92;2.22;;;;;;;;;;4997263;28;20034;-85
2022/08/14 03:46:48;;;;;;;5.03;2.60;;;;;;;;;;4963741;28;20053;-86
2022/08/14 03:49:22;;;;;;;7.72;2.47;;;;;;;;;;4979798;28;20026;-85
2022/08/14 03:51:48;;;;;;;3.35;2.22;;;;;;;;;;4997352;28;20044;-85
2022/08/14 03:54:14;;;;;;;3.67;2.58;;;;;;;;;;4996785;28;20038;-85
2022/08/14 03:56:43;;;;;;;3.60;2.42;;;;;;;;;;4997324;28;20049;-85
2022/08/14 03:59:10;;;;;;;3.70;2.47;;;;;;;;;;4997408;28;20455;-85
2022/08/14 04:01:40;;;;;;;4.10;2.47;;;;;;;;;;4997537;28;20030;-85
2022/08/14 04:04:07;;;;;;;3.85;2.70;;;;;;;;;;4997008;28;20042;-85
2022/08/14 04:06:33;;;;;;;3.85;2.47;;;;;;;;;;4997240;28;20396;-84
2022/08/14 04:08:59;;;;;;;3.38;2.40;;;;;;;;;;4996361;28;20034;-84
2022/08/14 04:11:25;;;;;;;3.00;2.60;;;;;;;;;;4978036;28;20034;-84
2022/08/14 04:13:50;;;;;;;2.70;2.40;;;;;;;;;;4997122;28;20042;-85
2022/08/14 04:16:20;;;;;;;5.85;3.10;;;;;;;;;;4996583;28;20045;-85
2022/08/14 04:18:49;;;;;;;3.10;2.63;;;;;;;;;;4997333;28;20092;-85
2022/08/14 04:21:16;;;;;;;5.35;2.70;;;;;;;;;;4996996;28;20052;-85
2022/08/14 04:23:44;;;;;;;3.78;2.33;;;;;;;;;;4979641;28;20455;-84
2022/08/14 04:26:12;;;;;;;3.30;2.60;;;;;;;;;;4996197;28;20077;-85
2022/08/14 04:28:39;;;;;;;4.88;2.90;;;;;;;;;;4979246;28;20034;-85
2022/08/14 04:31:05;;;;;;;3.75;2.55;;;;;;;;;;4979134;28;20129;-85
2022/08/14 04:33:32;;;;;;;4.28;2.50;;;;;;;;;;4996774;28;20065;-85
2022/08/14 04:35:58;;;;;;;3.60;2.75;;;;;;;;;;4995993;28;20109;-85
2022/08/14 04:43:52;;;;;;;3.08;2.40;;;;;;;;;;4979062;28;20561;-85
2022/08/14 04:46:20;;;;;;;5.18;2.50;;;;;;;;;;4995838;28;20038;-85
2022/08/14 04:48:47;;;;;;;4.47;2.60;;;;;;;;;;4979046;28;20044;-85
2022/08/14 04:51:15;;;;;;;5.45;2.55;;;;;;;;;;4996273;28;20087;-85
2022/08/14 04:53:44;;;;;;;3.22;2.60;;;;;;;;;;4996297;28;20065;-85
2022/08/14 04:56:16;;;;;;;2.97;2.40;;;;;;;;;;4995088;28;20049;-84
2022/08/14 04:58:42;;;;;;;2.75;2.45;;;;;;;;;;4978585;28;20181;-85
2022/08/14 05:01:09;;;;;;;2.55;2.30;;;;;;;;;;4996595;28;20058;-85
2022/08/14 05:03:37;;;;;;;3.03;2.47;;;;;;;;;;4978793;28;20454;-85
2022/08/14 05:06:10;;;;;;;3.75;2.67;;;;;;;;;;4978402;28;20109;-84
2022/08/14 05:08:37;;;;;;;2.95;2.53;;;;;;;;;;4996054;28;20064;-85
2022/08/14 05:11:06;;;;;;;3.90;2.60;;;;;;;;;;4994995;28;20089;-85
2022/08/14 05:13:33;;;;;;;4.80;2.70;;;;;;;;;;4996284;28;20037;-85
2022/08/14 05:16:00;;;;;;;3.15;2.45;;;;;;;;;;4977940;28;20050;-85
2022/08/14 05:18:31;;;;;;;3.53;2.60;;;;;;;;;;4995563;28;20036;-84
2022/08/14 05:20:58;;;;;;;3.22;2.60;;;;;;;;;;4995466;28;20046;-84
2022/08/14 05:23:27;;;;;;;4.18;2.60;;;;;;;;;;4995366;28;20034;-84
2022/08/14 05:25:58;;;;;;;2.65;2.40;;;;;;;;;;4995205;28;20050;-84
2022/08/14 05:28:25;;;;;;;3.15;2.42;;;;;;;;;;4978442;28;20804;-83
2022/08/14 05:30:56;;;;;;;3.80;2.60;;;;;;;;;;4962490;28;20037;-84
2022/08/14 05:33:27;;;;;;;4.55;2.60;;;;;;;;;;4995685;28;20125;-84
2022/08/14 05:36:00;;;;;;;5.20;2.42;;;;;;;;;;4995510;28;20038;-84
2022/08/14 05:38:52;;;;;;;;;;;;;;;;;;4995819;28;20038;-84
2022/08/14 05:41:18;;;;;;;3.70;2.42;;;;;;;;;;4995131;28;20382;-85
2022/08/14 05:43:46;;;;;;;2.92;2.45;;;;;;;;;;4996785;28;20040;-84
2022/08/14 05:46:17;;;;;;;3.95;2.60;;;;;;;;;;4978971;28;20033;-84
2022/08/14 05:48:46;;;;;;;3.58;2.30;;;;;;;;;;4995563;28;20042;-85
2022/08/14 05:51:12;;;;;;;5.65;2.60;;;;;;;;;;4977514;28;20563;-83
2022/08/14 05:53:38;;;;;;;3.40;2.50;;;;;;;;;;4994967;28;20483;-84
2022/08/14 05:56:03;;;;;;;3.10;2.30;;;;;;;;;;4977826;28;20061;-85
2022/08/14 05:58:29;;;;;;;4.28;2.40;;;;;;;;;;4995552;28;20042;-84
2022/08/14 06:00:56;;;;;;;2.85;2.25;;;;;;;;;;4974811;28;20027;-85
2022/08/14 06:03:22;;;;;;;5.45;2.50;;;;;;;;;;4960852;28;20034;-85
2022/08/14 06:05:50;;;;;;;3.83;2.58;;;;;;;;;;4996121;28;20053;-86
2022/08/14 06:08:28;;;;;;;3.83;2.20;;;;;;;;;;4996255;28;20080;-85
2022/08/14 06:11:04;;;;;;;3.17;2.53;;;;;;;;;;4978812;28;20484;-86
2022/08/14 06:13:48;;;;;;;4.32;2.40;;;;;;;;;;4977260;28;20038;-85
2022/08/14 06:16:16;;;;;;;3.97;2.20;;;;;;;;;;4993600;28;20042;-85
2022/08/14 06:18:41;;;;;;;4.25;2.10;;;;;;;;;;4978363;28;20038;-85
2022/08/14 06:21:07;;;;;;;3.63;2.45;;;;;;;;;;4995498;28;20069;-85
2022/08/14 06:23:33;;;;;;;4.32;2.20;;;;;;;;;;4995367;28;20085;-86
2022/08/14 06:25:58;;;;;;;3.00;2.28;;;;;;;;;;4986335;28;20038;-86
2022/08/14 06:28:25;;;;;;;4.15;2.30;;;;;;;;;;4995872;28;20469;-87
2022/08/14 06:30:51;;;;;;;3.08;2.30;;;;;;;;;;4995670;28;20109;-88
2022/08/14 06:33:18;;;;;;;3.20;2.20;;;;;;;;;;4993205;28;20065;-88
2022/08/14 06:35:45;;;;;;;2.97;2.20;;;;;;;;;;4981281;28;20061;-88
2022/08/14 06:38:19;;;;;;;3.08;2.28;;;;;;;;;;4998953;28;20054;-87
2022/08/14 06:40:45;;;;;;;3.58;2.17;;;;;;;;;;4996417;28;20058;-87
2022/08/14 06:43:11;;;;;;;2.50;2.30;;;;;;;;;;5002557;28;20034;-88
2022/08/14 06:45:39;;;;;;;2.33;2.10;;;;;;;;;;4998176;28;20594;-88
2022/08/14 06:48:22;;;;;;;4.85;2.50;;;;;;;;;;4983308;28;20034;-87
2022/08/14 06:50:48;;;;;;;;;;;;;;;;;;5000691;28;20131;-86
2022/08/14 06:53:16;;;;;;;2.85;2.30;;;;;;;;;;5000385;28;20370;-90
2022/08/14 06:55:42;;;;;;;3.95;2.13;;;;;;;;;;5000721;28;20061;-87
2022/08/14 06:58:15;;;;;;;4.47;2.10;;;;;;;;;;5002035;28;20067;-88
2022/08/14 07:05:44;;;;;;;3.05;2.05;;;;;;;;;;5002316;28;20041;-88
2022/08/14 07:06:16;;;;;;;5.65;2.08;;;;;;;;;;5002829;28;20462;-87
2022/08/14 07:08:42;;;;;;;5.07;2.00;;;;;;;;;;4985147;28;20046;-88
2022/08/14 07:11:09;;;;;;;3.70;2.10;;;;;;;;;;5002982;28;20163;-88
2022/08/14 07:13:35;;;;;;;5.25;2.25;;;;;;;;;;5002265;28;20113;-88
2022/08/14 07:16:01;;;;;;;3.85;2.17;;;;;;;;;;5003249;28;20041;-87
2022/08/14 07:18:29;;;;;;;3.25;2.30;;;;;;;;;;4985004;28;20042;-87
2022/08/14 07:20:57;;;;;;;3.28;2.05;;;;;;;;;;5002632;28;20038;-89
2022/08/14 07:23:22;;;;;;;2.38;2.10;;;;;;;;;;4983478;28;20035;-88
2022/08/14 07:25:51;;;;;;;3.53;2.00;;;;;;;;;;5001469;28;20533;-87
2022/08/14 07:28:20;;;;;;;4.72;2.10;;;;;;;;;;4999553;28;20399;-87
2022/08/14 07:30:45;;;;;;;3.47;2.10;;;;;;;;;;4980479;28;20471;-87
2022/08/14 07:33:12;;;;;;;4.68;2.20;;;;;;;;;;4988994;28;20061;-87
2022/08/14 07:35:39;;;;;;;2.78;2.22;;;;;;;;;;5004584;28;20081;-87
2022/08/14 07:38:06;;;;;;;2.55;2.15;;;;;;;;;;5001812;28;20042;-88
2022/08/14 07:40:32;;;;;;;2.80;2.28;;;;;;;;;;5001819;28;20035;-86
2022/08/14 07:42:57;;;;;;;4.30;2.33;;;;;;;;;;4984245;28;20068;-86
2022/08/14 07:45:24;;;;;;;3.70;2.15;;;;;;;;;;4998920;28;20034;-86
2022/08/14 07:47:50;;;;;;;3.95;2.33;;;;;;;;;;4998261;28;20092;-86
2022/08/14 07:50:18;;;;;;;4.30;2.30;;;;;;;;;;4998216;28;20037;-87
2022/08/14 07:52:46;;;;;;;5.03;2.40;;;;;;;;;;4997664;28;20100;-86
2022/08/14 07:55:15;;;;;;;3.00;2.10;;;;;;;;;;4998386;28;20042;-86
2022/08/14 07:57:42;;;;;;;2.60;2.40;;;;;;;;;;4998628;28;20129;-86
2022/08/14 08:00:16;;;;;;;2.50;2.20;;;;;;;;;;4980796;28;20122;-86
2022/08/14 08:02:45;;;;;;;2.20;2.00;;;;;;;;;;4980303;28;20039;-86
2022/08/14 08:05:13;;;;;;;3.03;2.10;;;;;;;;;;4998252;28;20525;-88
2022/08/14 08:07:39;;;;;;;3.28;2.25;;;;;;;;;;5000006;28;20057;-87
2022/08/14 08:10:30;;;;;;;3.25;2.10;;;;;;;;;;4998950;28;20046;-87
2022/08/14 08:13:00;;;;;;;3.70;2.00;;;;;;;;;;4999006;28;20038;-87
2022/08/14 08:15:27;;;;;;;4.50;1.98;;;;;;;;;;4983273;28;20014;-89
2022/08/14 08:17:53;;;;;;;4.93;2.15;;;;;;;;;;5003127;28;20038;-86
2022/08/14 08:20:24;;;;;;;3.30;2.30;;;;;;;;;;5002743;28;20140;-88
2022/08/14 08:22:50;;;;;;;3.05;2.17;;;;;;;;;;5000896;28;20129;-89
2022/08/14 08:25:19;;;;;;;3.65;1.90;;;;;;;;;;5005173;28;20023;-83
2022/08/14 08:28:01;;;;;;;2.55;2.10;;;;;;;;;;5008936;28;20040;-86
2022/08/14 08:30:29;;;;;;;3.10;2.17;;;;;;;;;;5013297;28;20080;-85
2022/08/14 08:32:56;;;;;;;3.22;2.00;;;;;;;;;;4976720;28;20042;-86
2022/08/14 08:35:37;;;;;;;4.15;2.10;;;;;;;;;;5011434;28;20031;-83
2022/08/14 08:38:09;;;;;;;3.30;2.10;;;;;;;;;;5013066;28;20114;-86
2022/08/14 08:40:41;;;;;;;4.47;2.20;;;;;;;;;;5011767;28;20042;-85
2022/08/14 08:43:32;;;;;;;2.70;2.05;;;;;;;;;;5009451;28;20051;-85
2022/08/14 08:46:10;;;;;;;2.60;2.08;;;;;;;;;;4991201;28;20042;-85
2022/08/14 08:48:56;;;;;;;2.30;2.03;;;;;;;;;;5009015;28;20049;-85
2022/08/14 08:51:27;;;;;;;3.45;2.13;;;;;;;;;;4991975;28;20048;-85
2022/08/14 08:54:06;;;;;;;2.53;2.10;;;;;;;;;;5009397;28;20041;-84
2022/08/14 08:56:33;;;;;;;2.67;2.10;;;;;;;;;;4991459;28;20034;-84
2022/08/14 08:58:59;;;;;;;2.45;2.00;;;;;;;;;;5009895;28;20031;-85
2022/08/14 09:01:29;;;;;;;4.28;2.20;;;;;;;;;;4991605;28;20046;-83
2022/08/14 09:04:04;;;;;;;6.45;2.40;;;;;;;;;;4991468;28;20041;-84
2022/08/14 09:06:30;;;;;;;2.63;2.30;;;;;;;;;;4991472;28;20097;-86
2022/08/14 09:08:56;;;;;;;4.18;2.10;;;;;;;;;;5008706;28;20514;-83
2022/08/14 09:11:23;;;;;;;4.07;2.30;;;;;;;;;;5008792;28;20038;-85
2022/08/14 09:13:51;;;;;;;4.13;2.17;;;;;;;;;;4991923;28;20034;-85
2022/08/14 09:16:26;;;;;;;3.92;2.50;;;;;;;;;;5008991;28;20056;-85
2022/08/14 09:18:53;;;;;;;5.47;2.60;;;;;;;;;;5008858;28;20034;-84
2022/08/14 09:21:18;;;;;;;2.55;2.35;;;;;;;;;;5009074;28;20026;-85
2022/08/14 09:23:44;;;;;;;4.50;2.20;;;;;;;;;;4992358;28;20442;-84
2022/08/14 09:26:10;;;;;;;2.88;2.33;;;;;;;;;;5008653;28;20038;-84
2022/08/14 09:28:36;;;;;;;2.83;2.20;;;;;;;;;;5008046;28;20053;-85
2022/08/14 09:31:02;;;;;;;5.88;2.40;;;;;;;;;;5009372;28;20096;-84
2022/08/14 09:33:43;;;;;;;3.75;2.50;;;;;;;;;;4991394;28;20034;-84
2022/08/14 09:36:11;;;;;;;4.40;2.40;;;;;;;;;;4991957;28;20038;-84
2022/08/14 09:39:10;;;;;;;2.70;2.40;;;;;;;;;;5008382;28;20101;-84
2022/08/14 09:42:06;;;;;;;2.53;2.20;;;;;;;;;;5008743;28;20507;-86
2022/08/14 09:45:01;;;;;;;4.75;2.42;;;;;;;;;;4991595;28;20042;-85
2022/08/14 09:47:44;;;;;;;3.90;2.60;;;;;;;;;;5009214;28;20046;-85
2022/08/14 09:50:23;;;;;;;5.63;2.50;;;;;;;;;;5008979;28;20084;-85
2022/08/14 09:52:51;;;;;;;4.43;2.60;;;;;;;;;;5009227;28;20042;-85
2022/08/14 09:55:19;;;;;;;5.63;2.50;;;;;;;;;;5008822;28;20069;-86
2022/08/14 09:57:45;;;;;;;3.15;2.50;;;;;;;;;;4991105;28;20034;-85
2022/08/14 10:00:18;;;;;;;5.75;2.42;;;;;;;;;;5008874;28;20046;-86
2022/08/14 10:03:01;;;;;;;3.97;2.80;;;;;;;;;;4991442;28;20034;-86
2022/08/14 10:05:29;;;;;;;3.63;2.38;;;;;;;;;;5009064;28;20046;-85
2022/08/14 10:07:55;;;;;;;3.30;2.60;;;;;;;;;;5008519;28;20038;-85
2022/08/14 10:10:32;;;;;;;4.25;2.63;;;;;;;;;;5007838;28;20418;-85
2022/08/14 10:13:00;;;;;;;3.00;2.60;;;;;;;;;;5008679;28;20098;-85
2022/08/14 10:15:29;;;;;;;5.07;2.80;;;;;;;;;;4990670;28;20042;-85
2022/08/14 10:18:12;;;;;;;7.00;2.80;;;;;;;;;;5008877;28;20041;-85
2022/08/14 10:20:42;;;;;;;2.97;2.42;;;;;;;;;;4990836;28;20030;-85
2022/08/14 10:23:13;;;;;;;6.03;2.50;;;;;;;;;;5008976;28;20057;-85
2022/08/14 10:25:42;;;;;;;3.03;2.70;;;;;;;;;;5008274;28;20038;-85
2022/08/14 10:28:08;;;;;;;4.05;2.60;;;;;;;;;;4991452;28;20041;-84
2022/08/14 10:30:35;;;;;;;4.65;2.88;;;;;;;;;;5007720;28;20035;-84
2022/08/14 10:33:01;;;;;;;2.95;2.72;;;;;;;;;;5006563;28;20042;-84
2022/08/14 10:35:26;;;;;;;4.38;2.70;;;;;;;;;;4990375;28;20243;-84
2022/08/14 10:37:52;;;;;;;3.28;2.60;;;;;;;;;;5008319;28;20056;-85
2022/08/14 10:40:26;;;;;;;4.75;3.08;;;;;;;;;;5006767;28;20046;-85
2022/08/14 10:42:52;;;;;;;4.38;2.60;;;;;;;;;;5008055;28;20102;-84
2022/08/14 10:45:20;;;;;;;6.88;2.60;;;;;;;;;;5008464;28;20030;-85
2022/08/14 10:47:48;;;;;;;3.00;2.70;;;;;;;;;;4975085;28;20035;-85
2022/08/14 10:50:15;;;;;;;3.25;2.70;;;;;;;;;;5007870;28;20061;-85
2022/08/14 10:52:41;;;;;;;3.72;2.88;;;;;;;;;;5008347;28;20039;-85
2022/08/14 10:55:13;;;;;;;5.47;2.78;;;;;;;;;;5007303;28;20061;-84
2022/08/14 10:57:53;;;;;;;4.22;2.80;;;;;;;;;;5008154;28;20042;-84
2022/08/14 11:00:25;;;;;;;5.57;2.95;;;;;;;;;;5008655;28;20030;-85
2022/08/14 11:03:17;;;;;;;4.07;2.83;;;;;;;;;;5008548;28;20082;-85
2022/08/14 11:05:47;;;;;;;7.93;2.90;;;;;;;;;;5006801;28;20053;-85
2022/08/14 11:08:14;;;;;;;3.80;2.70;;;;;;;;;;5008999;28;20101;-85
2022/08/14 11:10:50;;;;;;;3.72;2.80;;;;;;;;;;5007607;28;20034;-86
2022/08/14 11:13:20;;;;;;;3.55;2.72;;;;;;;;;;5008104;28;20038;-84
2022/08/14 11:15:47;;;;;;;4.55;2.72;;;;;;;;;;5007978;28;20038;-85
2022/08/14 11:18:14;;;;;;;3.80;2.95;;;;;;;;;;5008221;28;20034;-85
2022/08/14 11:20:55;;;;;;;4.13;2.83;;;;;;;;;;5009303;28;20109;-85
2022/08/14 11:23:32;;;;;;;4.97;2.83;;;;;;;;;;4994426;28;20557;-85
2022/08/14 11:25:59;;;;;;;4.32;2.90;;;;;;;;;;5011464;28;20042;-85
2022/08/14 11:28:27;;;;;;;3.38;3.00;;;;;;;;;;4994650;28;20049;-86
2022/08/14 11:30:57;;;;;;;5.13;3.10;;;;;;;;;;5011771;28;20069;-85
2022/08/14 11:33:30;;;;;;;4.18;2.80;;;;;;;;;;4994440;28;20043;-85
2022/08/14 11:35:57;;;;;;;4.88;2.70;;;;;;;;;;5011056;28;20042;-86
2022/08/14 11:38:24;;;;;;;3.28;2.70;;;;;;;;;;5011519;28;20034;-86
2022/08/14 11:40:50;;;;;;;6.00;2.85;;;;;;;;;;5009358;28;20118;-86
2022/08/14 11:43:16;;;;;;;4.50;2.88;;;;;;;;;;5010713;28;20038;-86
2022/08/14 11:45:46;;;;;;;3.20;2.70;;;;;;;;;;5010560;28;20093;-85
2022/08/14 11:48:22;;;;;;;5.55;2.95;;;;;;;;;;5010677;28;20038;-86
2022/08/14 11:50:49;;;;;;;8.65;3.80;;;;;;;;;;4993527;28;20070;-85
2022/08/14 11:53:42;;;;;;;5.05;3.00;;;;;;;;;;5011511;28;20082;-85
2022/08/14 11:56:08;;;;;;;6.28;2.88;;;;;;;;;;5010101;28;20060;-85
2022/08/14 11:58:36;;;;;;;3.10;2.70;;;;;;;;;;5011688;28;20035;-84
2022/08/14 12:01:06;;;;;;;3.05;2.72;;;;;;;;;;5010712;28;20034;-83
2022/08/14 12:03:36;;;;;;;5.05;2.60;;;;;;;;;;4993970;28;20089;-84
2022/08/14 12:06:10;;;;;;;3.13;2.70;;;;;;;;;;5009704;28;20031;-85
2022/08/14 12:08:37;;;;;;;4.32;2.67;;;;;;;;;;5010885;28;20046;-86
2022/08/14 12:11:04;;;;;;;3.58;2.80;;;;;;;;;;4992682;28;20094;-86
2022/08/14 12:13:31;;;;;;;3.92;2.80;;;;;;;;;;4992637;28;20060;-86
2022/08/14 12:16:04;;;;;;;4.85;2.60;;;;;;;;;;4992863;28;20089;-86
2022/08/14 12:18:39;;;;;;;2.92;2.58;;;;;;;;;;4993504;28;20037;-86
2022/08/14 12:21:20;;;;;;;6.63;2.70;;;;;;;;;;5010141;28;20050;-86
2022/08/14 12:23:47;;;;;;;3.30;2.80;;;;;;;;;;5009826;28;20102;-86
2022/08/14 12:26:16;;;;;;;3.10;2.78;;;;;;;;;;5010176;28;20061;-85
2022/08/14 12:28:43;;;;;;;5.13;2.90;;;;;;;;;;5010078;28;20490;-85
2022/08/14 12:31:16;;;;;;;3.88;3.10;;;;;;;;;;5010002;28;20031;-85
2022/08/14 12:33:42;;;;;;;3.88;2.80;;;;;;;;;;5009334;28;20046;-86
2022/08/14 12:36:19;;;;;;;3.78;2.65;;;;;;;;;;4992214;28;20065;-86
2022/08/14 12:38:44;;;;;;;5.07;2.80;;;;;;;;;;5009246;28;20034;-85
2022/08/14 12:41:19;;;;;;;3.55;2.72;;;;;;;;;;4992382;28;20065;-85
2022/08/14 12:44:05;;;;;;;4.80;2.90;;;;;;;;;;5010206;28;20067;-86
2022/08/14 12:46:36;;;;;;;3.22;2.60;;;;;;;;;;5010267;28;20069;-85
2022/08/14 12:49:13;;;;;;;4.72;2.75;;;;;;;;;;5010337;28;20057;-85
2022/08/14 12:51:39;;;;;;;5.90;2.88;;;;;;;;;;5008570;28;20042;-85
2022/08/14 12:54:17;;;;;;;5.50;2.60;;;;;;;;;;5009533;28;20403;-85
2022/08/14 12:56:46;;;;;;;4.20;2.85;;;;;;;;;;5009412;28;20098;-85
2022/08/14 12:59:13;;;;;;;4.30;2.90;;;;;;;;;;5009220;28;20097;-85
2022/08/14 13:01:41;;;;;;;4.20;2.70;;;;;;;;;;5009123;28;20102;-85
2022/08/14 13:04:14;;;;;;;3.58;2.65;;;;;;;;;;4991924;28;20337;-84
2022/08/14 13:06:44;;;;;;;3.53;2.95;;;;;;;;;;5009606;28;20061;-85
2022/08/14 13:09:12;;;;;;;4.00;3.00;;;;;;;;;;5009652;28;20177;-84
2022/08/14 13:11:43;;;;;;;3.78;3.00;;;;;;;;;;4976668;28;20038;-84
2022/08/14 13:14:12;;;;;;;2.97;2.67;;;;;;;;;;5009511;28;20026;-84
2022/08/14 13:16:37;;;;;;;6.40;3.00;;;;;;;;;;4992674;28;20045;-84
2022/08/14 13:19:03;;;;;;;5.15;3.13;;;;;;;;;;5009512;28;20031;-85
2022/08/14 13:21:30;;;;;;;3.22;2.85;;;;;;;;;;5008832;28;20038;-84
2022/08/14 13:23:56;;;;;;;6.43;2.85;;;;;;;;;;5009482;28;20053;-83
2022/08/14 13:26:25;;;;;;;5.57;2.97;;;;;;;;;;5009650;28;20058;-85
2022/08/14 13:28:52;;;;;;;3.78;2.90;;;;;;;;;;4992733;28;20034;-85
2022/08/14 13:31:22;;;;;;;3.90;2.85;;;;;;;;;;5009657;28;20038;-84
2022/08/14 13:33:49;;;;;;;4.82;2.90;;;;;;;;;;4992037;28;20114;-84
2022/08/14 13:36:15;;;;;;;5.63;2.90;;;;;;;;;;5007531;28;20034;-84
2022/08/14 13:38:43;;;;;;;3.90;3.05;;;;;;;;;;4991294;28;20077;-84
2022/08/14 13:41:10;;;;;;;8.52;3.30;;;;;;;;;;5008409;28;20042;-85
2022/08/14 13:43:38;;;;;;;3.67;2.85;;;;;;;;;;5008718;28;20096;-84
2022/08/14 13:46:04;;;;;;;6.05;3.10;;;;;;;;;;5008200;28;20064;-86
2022/08/14 13:48:30;;;;;;;4.00;2.90;;;;;;;;;;5008681;28;20066;-85
2022/08/14 13:50:58;;;;;;;4.45;3.00;;;;;;;;;;4991509;28;20038;-85
2022/08/14 13:53:24;;;;;;;3.53;2.88;;;;;;;;;;4991426;28;20030;-85
2022/08/14 13:55:52;;;;;;;3.03;2.70;;;;;;;;;;5008430;28;20049;-85
2022/08/14 13:58:20;;;;;;;3.63;2.90;;;;;;;;;;5008932;28;20065;-86
2022/08/14 14:00:50;;;;;;;5.65;3.40;;;;;;;;;;5008931;28;20061;-86
2022/08/14 14:03:17;;;;;;;4.95;2.70;;;;;;;;;;5009239;28;20026;-85
2022/08/14 14:05:42;;;;;;;3.05;2.75;;;;;;;;;;5008670;28;20048;-85
2022/08/14 14:08:10;;;;;;;4.63;3.20;;;;;;;;;;5008340;28;20061;-85
2022/08/14 14:10:35;;;;;;;5.93;2.97;;;;;;;;;;5008416;28;20044;-85
2022/08/14 14:13:03;;;;;;;4.95;2.85;;;;;;;;;;5008765;28;20061;-85
2022/08/14 14:15:29;;;;;;;3.92;2.83;;;;;;;;;;5007935;28;20073;-85
2022/08/14 14:17:57;;;;;;;4.88;3.10;;;;;;;;;;5008975;28;20391;-86
2022/08/14 14:20:24;;;;;;;6.63;3.80;;;;;;;;;;5008745;28;20034;-85
2022/08/14 14:22:50;;;;;;;5.32;4.82;;;;;;;;;;5008538;28;20049;-85
2022/08/14 14:25:17;;;;;;;5.63;4.57;;;;;;;;;;5009131;28;20026;-85
2022/08/14 14:27:45;;;;;;;5.80;3.58;;;;;;;;;;5008206;28;20038;-85
2022/08/14 14:30:12;;;;;;;4.88;3.20;;;;;;;;;;5008586;28;20042;-85
2022/08/14 14:32:40;;;;;;;4.90;3.90;;;;;;;;;;4991187;28;20042;-85
2022/08/14 14:35:09;;;;;;;5.47;4.53;;;;;;;;;;5007872;28;20038;-85
2022/08/14 14:37:38;;;;;;;6.75;5.22;;;;;;;;;;5008624;28;20045;-86
2022/08/14 14:40:05;;;;;;;4.28;3.00;;;;;;;;;;5008827;28;20117;-85
2022/08/14 14:42:33;;;;;;;5.70;3.70;;;;;;;;;;5008722;28;20034;-84
2022/08/14 14:45:20;;;;;;;8.60;3.60;;;;;;;;;;5008336;28;20510;-85
2022/08/14 14:47:50;;;;;;;4.53;3.28;;;;;;;;;;5008490;28;20056;-84
2022/08/14 14:50:17;;;;;;;4.00;3.60;;;;;;;;;;4999880;28;20043;-87
2022/08/14 14:52:42;;;;;;;3.50;3.20;;;;;;;;;;5001974;28;20022;-85
2022/08/14 14:55:12;;;;;;;4.03;3.30;;;;;;;;;;5005801;28;20069;-85
2022/08/14 14:57:40;;;;;;;4.60;3.08;;;;;;;;;;4992612;28;20038;-84
2022/08/14 15:00:07;;;;;;;4.88;3.33;;;;;;;;;;5010186;28;20113;-84
2022/08/14 15:02:35;;;;;;;3.70;3.20;;;;;;;;;;5009103;28;20030;-84
2022/08/14 15:05:01;;;;;;;3.70;3.17;;;;;;;;;;5005980;28;20030;-84